Russell Island, Michigan
Current Conditions -  °F | °C
As of 7:55 PM on Sunday 21 Dec 2014 (Local Time) from KMTC Reporting Station
Overcast Overcast  
Wind Chill: 23°   Ceiling: 2300
Heat Index: 30°   Visibility: 7mi
Dew Point: 26°   Wind: 7mph
Humidity: 86%   Direction: 140°SE
Pressure: 30.21"   Gusts: NA
Location:  42.6418°N, 82.5677°W
Report Text: KMTC 220055Z 14006KT 7SM BKN023 OVC060 M01/M03 A3021 RMK SLP247 T10121032
Loading
Personal Weather Stations






























Interactive Weather Map New forecast layout! Learn more

10-Day Weather Forecast

Advertisements
Track Severe Weather on mobile